Grandview, Iowa
Current Conditions -  °F | °C
As of 10:35 AM on Tuesday 21 Oct 2014 (Local Time) from KMUT Reporting Station
Clear Clear  
Wind Chill: 54°   Ceiling: Unl
Heat Index: 54°   Visibility: 10mi
Dew Point: 43°   Wind: 8mph
Humidity: 67%   Direction: 70°ENE
Pressure: 30.21"   Gusts: NA
Location:  41.28°N, 91.19°W
Report Text: KMUT 211535Z AUTO 07007KT 10SM CLR 12/06 A3021 RMK AO2
Loading
Personal Weather Stations






























Interactive Weather Map
Tropical Storm Tracking
New forecast layout! Learn more

10-Day Weather Forecast

Advertisements
Track Severe Weather on mobile